sensor_id;sensor_type;location;lat;lon;timestamp;pressure;altitude;pressure_sealevel;temperature;humidity
62694;BME280;48759;52.544;13.418;2023-03-26T00:01:02;99524.66;;;17.27;53.77
62694;BME280;48759;52.544;13.418;2023-03-26T00:03:31;99534.06;;;16.60;55.67
62694;BME280;48759;52.544;13.418;2023-03-26T00:06:02;99523.34;;;15.12;60.14
62694;BME280;48759;52.544;13.418;2023-03-26T00:08:30;99542.78;;;15.54;59.41
62694;BME280;48759;52.544;13.418;2023-03-26T00:10:57;99540.84;;;15.50;59.13
62694;BME280;48759;52.544;13.418;2023-03-26T00:13:24;99541.31;;;15.89;58.41
62694;BME280;48759;52.544;13.418;2023-03-26T00:15:51;99550.91;;;14.92;61.19
62694;BME280;48759;52.544;13.418;2023-03-26T00:18:20;99539.59;;;14.18;64.27
62694;BME280;48759;52.544;13.418;2023-03-26T00:20:50;99532.16;;;13.97;64.40
62694;BME280;48759;52.544;13.418;2023-03-26T00:23:17;99546.44;;;14.37;64.86
62694;BME280;48759;52.544;13.418;2023-03-26T00:25:45;99546.47;;;15.70;61.08
62694;BME280;48759;52.544;13.418;2023-03-26T00:28:15;99538.00;;;14.76;61.09
62694;BME280;48759;52.544;13.418;2023-03-26T00:30:46;99550.78;;;15.46;61.41
62694;BME280;48759;52.544;13.418;2023-03-26T00:33:13;99556.81;;;15.80;59.26
62694;BME280;48759;52.544;13.418;2023-03-26T00:35:43;99545.13;;;14.67;62.16
62694;BME280;48759;52.544;13.418;2023-03-26T00:38:12;99537.00;;;14.33;62.91
62694;BME280;48759;52.544;13.418;2023-03-26T00:40:39;99550.53;;;15.15;60.19
62694;BME280;48759;52.544;13.418;2023-03-26T00:43:08;99537.09;;;14.43;61.60
62694;BME280;48759;52.544;13.418;2023-03-26T00:45:43;99537.81;;;14.34;60.74
62694;BME280;48759;52.544;13.418;2023-03-26T00:48:12;99533.16;;;15.67;58.24
62694;BME280;48759;52.544;13.418;2023-03-26T00:50:40;99553.78;;;15.07;60.48
62694;BME280;48759;52.544;13.418;2023-03-26T00:53:09;99536.66;;;15.47;58.31
62694;BME280;48759;52.544;13.418;2023-03-26T00:55:38;99538.25;;;14.74;59.82
62694;BME280;48759;52.544;13.418;2023-03-26T00:58:05;99546.75;;;13.70;64.40
62694;BME280;48759;52.544;13.418;2023-03-26T01:00:36;99553.06;;;14.36;62.35
62694;BME280;48759;52.544;13.418;2023-03-26T01:03:05;99545.75;;;13.05;67.21
62694;BME280;48759;52.544;13.418;2023-03-26T01:05:47;99527.97;;;14.16;64.00
62694;BME280;48759;52.544;13.418;2023-03-26T01:08:29;99544.09;;;13.81;63.50
62694;BME280;48759;52.544;13.418;2023-03-26T01:10:58;99544.41;;;14.28;62.78
62694;BME280;48759;52.544;13.418;2023-03-26T01:13:34;99556.94;;;14.89;60.97
62694;BME280;48759;52.544;13.418;2023-03-26T01:16:02;99553.75;;;15.34;59.53
62694;BME280;48759;52.544;13.418;2023-03-26T01:18:31;99556.31;;;15.46;59.07
62694;BME280;48759;52.544;13.418;2023-03-26T01:21:06;99572.25;;;14.65;61.40
62694;BME280;48759;52.544;13.418;2023-03-26T01:23:44;99569.91;;;15.89;60.00
62694;BME280;48759;52.544;13.418;2023-03-26T01:26:38;99572.72;;;14.57;64.72
62694;BME280;48759;52.544;13.418;2023-03-26T01:29:18;99569.56;;;15.07;64.49
62694;BME280;48759;52.544;13.418;2023-03-26T01:31:53;99574.38;;;15.16;63.30
62694;BME280;48759;52.544;13.418;2023-03-26T01:34:28;99578.31;;;14.62;64.03
62694;BME280;48759;52.544;13.418;2023-03-26T01:37:05;99568.50;;;15.45;61.97
62694;BME280;48759;52.544;13.418;2023-03-26T01:39:41;99566.44;;;14.98;62.26
62694;BME280;48759;52.544;13.418;2023-03-26T01:42:20;99573.06;;;14.92;61.89
62694;BME280;48759;52.544;13.418;2023-03-26T01:44:54;99570.25;;;14.60;64.72
62694;BME280;48759;52.544;13.418;2023-03-26T01:47:22;99569.28;;;15.35;63.00
62694;BME280;48759;52.544;13.418;2023-03-26T01:49:50;99554.78;;;14.15;64.76
62694;BME280;48759;52.544;13.418;2023-03-26T01:52:20;99560.03;;;15.29;61.75
62694;BME280;48759;52.544;13.418;2023-03-26T01:54:49;99558.97;;;14.67;63.23
62694;BME280;48759;52.544;13.418;2023-03-26T01:57:28;99573.03;;;15.19;61.10
62694;BME280;48759;52.544;13.418;2023-03-26T02:00:05;99568.47;;;15.40;60.57
62694;BME280;48759;52.544;13.418;2023-03-26T02:02:43;99566.88;;;14.80;61.67
62694;BME280;48759;52.544;13.418;2023-03-26T02:05:17;99563.94;;;16.18;57.48
62694;BME280;48759;52.544;13.418;2023-03-26T02:07:49;99568.56;;;14.32;61.34
62694;BME280;48759;52.544;13.418;2023-03-26T02:10:22;99574.06;;;14.54;61.01
62694;BME280;48759;52.544;13.418;2023-03-26T02:12:51;99579.59;;;14.54;61.55
62694;BME280;48759;52.544;13.418;2023-03-26T02:15:18;99570.63;;;13.76;64.70
62694;BME280;48759;52.544;13.418;2023-03-26T02:17:46;99565.06;;;14.69;61.72
62694;BME280;48759;52.544;13.418;2023-03-26T02:20:14;99562.50;;;14.89;61.29
62694;BME280;48759;52.544;13.418;2023-03-26T02:22:43;99569.19;;;14.39;63.87
62694;BME280;48759;52.544;13.418;2023-03-26T02:25:14;99557.97;;;14.29;64.13
62694;BME280;48759;52.544;13.418;2023-03-26T02:27:42;99568.94;;;14.19;64.87
62694;BME280;48759;52.544;13.418;2023-03-26T02:30:14;99567.41;;;13.85;66.04
62694;BME280;48759;52.544;13.418;2023-03-26T02:32:41;99568.31;;;14.61;65.84
62694;BME280;48759;52.544;13.418;2023-03-26T02:35:10;99558.81;;;14.30;66.84
62694;BME280;48759;52.544;13.418;2023-03-26T02:37:39;99558.63;;;14.90;64.19
62694;BME280;48759;52.544;13.418;2023-03-26T02:40:07;99570.88;;;14.67;65.17
62694;BME280;48759;52.544;13.418;2023-03-26T02:42:36;99573.03;;;15.56;62.80
62694;BME280;48759;52.544;13.418;2023-03-26T02:45:04;99580.88;;;13.59;68.48
62694;BME280;48759;52.544;13.418;2023-03-26T02:47:33;99584.41;;;13.38;67.75
62694;BME280;48759;52.544;13.418;2023-03-26T02:50:00;99584.94;;;15.19;64.49
62694;BME280;48759;52.544;13.418;2023-03-26T02:52:28;99593.19;;;14.34;68.11
62694;BME280;48759;52.544;13.418;2023-03-26T02:54:56;99588.19;;;14.31;68.26
62694;BME280;48759;52.544;13.418;2023-03-26T02:57:23;99589.81;;;14.48;65.70
62694;BME280;48759;52.544;13.418;2023-03-26T02:59:50;99591.34;;;15.57;63.01
62694;BME280;48759;52.544;13.418;2023-03-26T03:02:18;99592.22;;;15.30;62.41
62694;BME280;48759;52.544;13.418;2023-03-26T03:04:48;99596.56;;;14.89;63.55
62694;BME280;48759;52.544;13.418;2023-03-26T03:07:25;99592.19;;;14.67;64.14
62694;BME280;48759;52.544;13.418;2023-03-26T03:09:53;99600.75;;;15.56;61.40
62694;BME280;48759;52.544;13.418;2023-03-26T03:12:20;99599.66;;;14.44;64.72
62694;BME280;48759;52.544;13.418;2023-03-26T03:14:47;99594.13;;;12.90;71.89
62694;BME280;48759;52.544;13.418;2023-03-26T03:17:14;99597.50;;;14.03;68.12
62694;BME280;48759;52.544;13.418;2023-03-26T03:19:41;99598.25;;;14.90;64.31
62694;BME280;48759;52.544;13.418;2023-03-26T03:22:11;99597.16;;;14.43;65.54
62694;BME280;48759;52.544;13.418;2023-03-26T03:24:38;99590.25;;;14.94;62.95
62694;BME280;48759;52.544;13.418;2023-03-26T03:27:08;99602.91;;;14.36;64.65
62694;BME280;48759;52.544;13.418;2023-03-26T03:29:35;99603.41;;;13.90;67.25
62694;BME280;48759;52.544;13.418;2023-03-26T03:32:02;99599.47;;;15.05;63.97
62694;BME280;48759;52.544;13.418;2023-03-26T03:34:30;99603.09;;;15.37;61.83
62694;BME280;48759;52.544;13.418;2023-03-26T03:36:56;99609.84;;;14.61;63.33
62694;BME280;48759;52.544;13.418;2023-03-26T03:39:25;99604.53;;;14.54;66.19
62694;BME280;48759;52.544;13.418;2023-03-26T03:41:52;99609.00;;;13.95;67.44
62694;BME280;48759;52.544;13.418;2023-03-26T03:44:20;99610.81;;;14.71;63.35
62694;BME280;48759;52.544;13.418;2023-03-26T03:46:49;99615.56;;;15.72;61.50
62694;BME280;48759;52.544;13.418;2023-03-26T03:49:19;99606.00;;;14.88;62.83
62694;BME280;48759;52.544;13.418;2023-03-26T03:51:46;99621.72;;;15.79;61.11
62694;BME280;48759;52.544;13.418;2023-03-26T03:54:14;99624.94;;;16.75;59.24
62694;BME280;48759;52.544;13.418;2023-03-26T03:56:43;99620.28;;;15.34;59.83
62694;BME280;48759;52.544;13.418;2023-03-26T03:59:11;99622.03;;;15.82;60.22
62694;BME280;48759;52.544;13.418;2023-03-26T04:01:38;99622.41;;;14.95;62.93
62694;BME280;48759;52.544;13.418;2023-03-26T04:04:08;99623.19;;;15.49;61.97
62694;BME280;48759;52.544;13.418;2023-03-26T04:06:36;99623.03;;;14.48;64.12
62694;BME280;48759;52.544;13.418;2023-03-26T04:09:03;99611.38;;;15.69;60.75
62694;BME280;48759;52.544;13.418;2023-03-26T04:11:29;99630.53;;;14.31;63.66
62694;BME280;48759;52.544;13.418;2023-03-26T04:13:57;99623.91;;;14.32;66.25
62694;BME280;48759;52.544;13.418;2023-03-26T04:16:24;99622.72;;;14.72;65.90
62694;BME280;48759;52.544;13.418;2023-03-26T04:18:51;99624.09;;;14.96;64.71
62694;BME280;48759;52.544;13.418;2023-03-26T04:21:18;99627.81;;;15.39;62.93
62694;BME280;48759;52.544;13.418;2023-03-26T04:23:46;99624.75;;;15.35;62.56
62694;BME280;48759;52.544;13.418;2023-03-26T04:26:16;99632.72;;;14.73;63.77
62694;BME280;48759;52.544;13.418;2023-03-26T04:28:47;99629.56;;;14.91;62.77
62694;BME280;48759;52.544;13.418;2023-03-26T04:31:22;99636.00;;;14.70;64.24
62694;BME280;48759;52.544;13.418;2023-03-26T04:33:54;99628.91;;;14.79;64.85
62694;BME280;48759;52.544;13.418;2023-03-26T04:36:28;99625.56;;;14.82;64.38
62694;BME280;48759;52.544;13.418;2023-03-26T04:38:57;99624.22;;;14.58;64.88
62694;BME280;48759;52.544;13.418;2023-03-26T04:41:27;99621.56;;;14.68;64.83
62694;BME280;48759;52.544;13.418;2023-03-26T04:43:54;99637.28;;;14.62;64.41
62694;BME280;48759;52.544;13.418;2023-03-26T04:46:28;99630.19;;;14.28;65.38
62694;BME280;48759;52.544;13.418;2023-03-26T04:48:58;99629.97;;;14.78;64.38
62694;BME280;48759;52.544;13.418;2023-03-26T04:51:26;99623.25;;;14.25;64.89
62694;BME280;48759;52.544;13.418;2023-03-26T04:53:59;99626.00;;;16.01;60.22
62694;BME280;48759;52.544;13.418;2023-03-26T04:56:33;99621.84;;;15.57;60.62
62694;BME280;48759;52.544;13.418;2023-03-26T04:59:03;99628.56;;;14.75;62.18
62694;BME280;48759;52.544;13.418;2023-03-26T05:01:34;99631.75;;;14.40;64.18
62694;BME280;48759;52.544;13.418;2023-03-26T05:04:02;99620.63;;;15.11;62.33
62694;BME280;48759;52.544;13.418;2023-03-26T05:06:28;99626.75;;;14.86;61.38
62694;BME280;48759;52.544;13.418;2023-03-26T05:08:59;99636.25;;;14.46;63.80
62694;BME280;48759;52.544;13.418;2023-03-26T05:11:26;99632.00;;;15.14;60.80
62694;BME280;48759;52.544;13.418;2023-03-26T05:13:53;99627.19;;;14.73;62.02
62694;BME280;48759;52.544;13.418;2023-03-26T05:16:21;99636.31;;;15.00;61.18
62694;BME280;48759;52.544;13.418;2023-03-26T05:18:52;99637.53;;;14.61;62.82
62694;BME280;48759;52.544;13.418;2023-03-26T05:21:20;99630.59;;;15.12;61.19
62694;BME280;48759;52.544;13.418;2023-03-26T05:23:47;99635.22;;;14.31;63.96
62694;BME280;48759;52.544;13.418;2023-03-26T05:26:13;99625.31;;;15.10;61.88
62694;BME280;48759;52.544;13.418;2023-03-26T05:28:40;99635.47;;;15.31;61.04
62694;BME280;48759;52.544;13.418;2023-03-26T05:31:08;99628.94;;;16.22;58.16
62694;BME280;48759;52.544;13.418;2023-03-26T05:33:35;99637.03;;;15.91;59.02
62694;BME280;48759;52.544;13.418;2023-03-26T05:36:05;99631.72;;;15.43;60.83
62694;BME280;48759;52.544;13.418;2023-03-26T05:38:34;99641.66;;;16.18;58.92
62694;BME280;48759;52.544;13.418;2023-03-26T05:41:03;99634.38;;;16.79;56.25
62694;BME280;48759;52.544;13.418;2023-03-26T05:43:31;99646.91;;;16.87;55.96
62694;BME280;48759;52.544;13.418;2023-03-26T05:45:58;99646.88;;;16.71;55.92
62694;BME280;48759;52.544;13.418;2023-03-26T05:48:26;99646.25;;;14.96;60.45
62694;BME280;48759;52.544;13.418;2023-03-26T05:50:55;99639.78;;;15.17;60.26
62694;BME280;48759;52.544;13.418;2023-03-26T05:53:27;99638.44;;;16.41;58.45
62694;BME280;48759;52.544;13.418;2023-03-26T05:55:57;99650.69;;;15.56;58.93
62694;BME280;48759;52.544;13.418;2023-03-26T05:58:33;99641.81;;;15.27;60.75
62694;BME280;48759;52.544;13.418;2023-03-26T06:01:12;99632.81;;;16.26;59.90
62694;BME280;48759;52.544;13.418;2023-03-26T06:03:46;99645.69;;;16.00;60.63
62694;BME280;48759;52.544;13.418;2023-03-26T06:06:48;99635.06;;;16.34;60.06
62694;BME280;48759;52.544;13.418;2023-03-26T06:09:29;99655.72;;;16.58;58.95
62694;BME280;48759;52.544;13.418;2023-03-26T06:12:17;99657.41;;;15.65;61.13
62694;BME280;48759;52.544;13.418;2023-03-26T06:15:09;99660.31;;;15.48;63.39
62694;BME280;48759;52.544;13.418;2023-03-26T06:17:40;99655.88;;;15.20;62.94
62694;BME280;48759;52.544;13.418;2023-03-26T06:20:08;99655.75;;;16.11;57.26
62694;BME280;48759;52.544;13.418;2023-03-26T06:22:36;99665.06;;;15.90;57.93
62694;BME280;48759;52.544;13.418;2023-03-26T06:25:05;99659.63;;;14.77;58.51
62694;BME280;48759;52.544;13.418;2023-03-26T06:27:32;99658.91;;;14.87;59.91
62694;BME280;48759;52.544;13.418;2023-03-26T06:30:00;99668.66;;;17.00;55.50
62694;BME280;48759;52.544;13.418;2023-03-26T06:32:27;99676.06;;;16.17;55.45
62694;BME280;48759;52.544;13.418;2023-03-26T06:34:57;99675.41;;;15.04;60.13
62694;BME280;48759;52.544;13.418;2023-03-26T06:37:24;99653.75;;;14.74;60.37
62694;BME280;48759;52.544;13.418;2023-03-26T06:39:51;99675.16;;;14.57;60.36
62694;BME280;48759;52.544;13.418;2023-03-26T06:42:19;99675.59;;;15.51;59.08
62694;BME280;48759;52.544;13.418;2023-03-26T06:44:46;99670.13;;;15.98;56.83
62694;BME280;48759;52.544;13.418;2023-03-26T06:47:16;99670.44;;;15.64;56.75
62694;BME280;48759;52.544;13.418;2023-03-26T06:49:50;99666.47;;;15.28;57.34
62694;BME280;48759;52.544;13.418;2023-03-26T06:52:19;99672.91;;;15.02;57.11
62694;BME280;48759;52.544;13.418;2023-03-26T06:54:46;99660.28;;;15.16;56.42
62694;BME280;48759;52.544;13.418;2023-03-26T06:57:13;99663.44;;;16.46;54.80
62694;BME280;48759;52.544;13.418;2023-03-26T06:59:41;99665.38;;;17.58;51.53
62694;BME280;48759;52.544;13.418;2023-03-26T07:02:09;99665.56;;;16.24;53.43
62694;BME280;48759;52.544;13.418;2023-03-26T07:04:36;99662.22;;;16.89;51.53
62694;BME280;48759;52.544;13.418;2023-03-26T07:07:04;99657.19;;;15.77;52.91
62694;BME280;48759;52.544;13.418;2023-03-26T07:09:35;99660.56;;;16.21;52.72
62694;BME280;48759;52.544;13.418;2023-03-26T07:12:05;99660.94;;;17.47;50.26
62694;BME280;48759;52.544;13.418;2023-03-26T07:14:32;99665.88;;;17.05;50.59
62694;BME280;48759;52.544;13.418;2023-03-26T07:17:00;99657.03;;;16.40;51.91
62694;BME280;48759;52.544;13.418;2023-03-26T07:19:27;99673.41;;;14.72;55.69
62694;BME280;48759;52.544;13.418;2023-03-26T07:21:56;99670.53;;;16.17;52.49
62694;BME280;48759;52.544;13.418;2023-03-26T07:24:23;99666.19;;;17.13;51.54
62694;BME280;48759;52.544;13.418;2023-03-26T07:26:55;99661.38;;;16.83;51.21
62694;BME280;48759;52.544;13.418;2023-03-26T07:29:32;99651.41;;;15.83;52.44
62694;BME280;48759;52.544;13.418;2023-03-26T07:32:08;99662.75;;;16.76;51.39
62694;BME280;48759;52.544;13.418;2023-03-26T07:34:47;99665.09;;;17.55;50.13
62694;BME280;48759;52.544;13.418;2023-03-26T07:37:28;99660.13;;;16.49;51.23
62694;BME280;48759;52.544;13.418;2023-03-26T07:40:00;99662.00;;;17.21;49.81
62694;BME280;48759;52.544;13.418;2023-03-26T07:42:38;99658.13;;;17.63;49.74
62694;BME280;48759;52.544;13.418;2023-03-26T07:45:16;99665.38;;;17.23;49.69
62694;BME280;48759;52.544;13.418;2023-03-26T07:47:47;99663.44;;;16.41;51.53
62694;BME280;48759;52.544;13.418;2023-03-26T07:50:20;99670.00;;;15.46;53.24
62694;BME280;48759;52.544;13.418;2023-03-26T07:52:48;99665.44;;;16.08;51.56
62694;BME280;48759;52.544;13.418;2023-03-26T07:55:17;99666.78;;;16.43;51.28
62694;BME280;48759;52.544;13.418;2023-03-26T07:57:52;99673.44;;;16.47;50.59
62694;BME280;48759;52.544;13.418;2023-03-26T08:00:29;99669.72;;;16.21;51.27
62694;BME280;48759;52.544;13.418;2023-03-26T08:06:04;99670.84;;;15.46;51.54
62694;BME280;48759;52.544;13.418;2023-03-26T08:08:39;99660.72;;;16.56;49.33
62694;BME280;48759;52.544;13.418;2023-03-26T08:11:20;99662.25;;;17.04;49.34
62694;BME280;48759;52.544;13.418;2023-03-26T08:14:02;99658.13;;;16.34;50.25
62694;BME280;48759;52.544;13.418;2023-03-26T08:16:36;99660.81;;;16.87;49.88
62694;BME280;48759;52.544;13.418;2023-03-26T08:19:14;99670.53;;;15.80;52.19
62694;BME280;48759;52.544;13.418;2023-03-26T08:21:53;99655.19;;;16.61;50.83
62694;BME280;48759;52.544;13.418;2023-03-26T08:24:26;99660.06;;;17.57;49.38
62694;BME280;48759;52.544;13.418;2023-03-26T08:27:00;99659.81;;;17.69;48.93
62694;BME280;48759;52.544;13.418;2023-03-26T08:29:32;99661.38;;;18.20;47.67
62694;BME280;48759;52.544;13.418;2023-03-26T08:32:03;99660.34;;;18.01;47.26
62694;BME280;48759;52.544;13.418;2023-03-26T08:34:29;99658.69;;;17.90;48.31
62694;BME280;48759;52.544;13.418;2023-03-26T08:36:58;99665.91;;;18.01;47.50
62694;BME280;48759;52.544;13.418;2023-03-26T08:39:25;99667.00;;;17.04;47.43
62694;BME280;48759;52.544;13.418;2023-03-26T08:42:26;99657.97;;;16.61;48.85
62694;BME280;48759;52.544;13.418;2023-03-26T08:45:36;99653.06;;;16.21;48.90
62694;BME280;48759;52.544;13.418;2023-03-26T08:48:34;99659.22;;;17.06;48.46
62694;BME280;48759;52.544;13.418;2023-03-26T08:54:37;99650.44;;;16.57;54.48
62694;BME280;48759;52.544;13.418;2023-03-26T08:57:22;99645.53;;;16.17;53.97
62694;BME280;48759;52.544;13.418;2023-03-26T09:00:09;99638.06;;;15.75;54.46
62694;BME280;48759;52.544;13.418;2023-03-26T09:02:58;99643.31;;;15.77;55.47
62694;BME280;48759;52.544;13.418;2023-03-26T09:08:49;99643.25;;;16.08;54.89
62694;BME280;48759;52.544;13.418;2023-03-26T09:11:50;99633.97;;;16.40;53.10
62694;BME280;48759;52.544;13.418;2023-03-26T09:20:49;99630.88;;;15.84;53.24
62694;BME280;48759;52.544;13.418;2023-03-26T09:26:44;99645.94;;;16.40;54.74
62694;BME280;48759;52.544;13.418;2023-03-26T09:29:32;99657.56;;;14.24;59.73
62694;BME280;48759;52.544;13.418;2023-03-26T09:32:38;99644.25;;;15.18;62.03
62694;BME280;48759;52.544;13.418;2023-03-26T09:35:28;99647.69;;;14.77;64.61
62694;BME280;48759;52.544;13.418;2023-03-26T09:37:59;99658.72;;;14.99;62.91
62694;BME280;48759;52.544;13.418;2023-03-26T09:40:36;99651.59;;;14.32;66.47
62694;BME280;48759;52.544;13.418;2023-03-26T09:43:28;99660.88;;;14.65;64.92
62694;BME280;48759;52.544;13.418;2023-03-26T09:46:10;99657.28;;;14.04;66.51
62694;BME280;48759;52.544;13.418;2023-03-26T09:51:57;99668.38;;;13.87;68.89
62694;BME280;48759;52.544;13.418;2023-03-26T09:54:51;99654.47;;;13.82;69.27
62694;BME280;48759;52.544;13.418;2023-03-26T09:57:45;99672.03;;;14.31;66.96
62694;BME280;48759;52.544;13.418;2023-03-26T10:00:32;99667.41;;;14.15;66.64
62694;BME280;48759;52.544;13.418;2023-03-26T10:03:17;99674.50;;;13.72;67.62
62694;BME280;48759;52.544;13.418;2023-03-26T10:06:04;99661.75;;;13.88;66.89
62694;BME280;48759;52.544;13.418;2023-03-26T10:08:45;99660.63;;;13.67;69.55
62694;BME280;48759;52.544;13.418;2023-03-26T10:11:20;99664.66;;;14.59;64.35
62694;BME280;48759;52.544;13.418;2023-03-26T10:14:07;99648.88;;;15.13;63.57
62694;BME280;48759;52.544;13.418;2023-03-26T10:16:53;99655.66;;;16.43;59.72
62694;BME280;48759;52.544;13.418;2023-03-26T10:19:42;99655.66;;;14.95;63.82
62694;BME280;48759;52.544;13.418;2023-03-26T10:22:21;99648.25;;;16.06;59.52
62694;BME280;48759;52.544;13.418;2023-03-26T10:25:14;99652.16;;;16.11;59.94
62694;BME280;48759;52.544;13.418;2023-03-26T10:27:53;99649.78;;;17.27;57.45
62694;BME280;48759;52.544;13.418;2023-03-26T10:30:47;99658.13;;;17.83;53.70
62694;BME280;48759;52.544;13.418;2023-03-26T10:33:29;99645.88;;;17.08;55.16
62694;BME280;48759;52.544;13.418;2023-03-26T10:36:13;99655.34;;;17.63;53.23
62694;BME280;48759;52.544;13.418;2023-03-26T10:38:56;99649.53;;;16.41;56.65
62694;BME280;48759;52.544;13.418;2023-03-26T10:41:30;99659.50;;;16.99;54.74
62694;BME280;48759;52.544;13.418;2023-03-26T10:44:13;99656.06;;;16.77;55.27
62694;BME280;48759;52.544;13.418;2023-03-26T10:47:13;99651.22;;;16.42;56.75
62694;BME280;48759;52.544;13.418;2023-03-26T10:53:05;99663.16;;;15.95;57.69
62694;BME280;48759;52.544;13.418;2023-03-26T10:55:38;99656.38;;;16.18;57.67
62694;BME280;48759;52.544;13.418;2023-03-26T10:58:12;99662.56;;;17.18;54.99
62694;BME280;48759;52.544;13.418;2023-03-26T11:00:49;99653.03;;;16.89;55.40
62694;BME280;48759;52.544;13.418;2023-03-26T11:03:44;99653.59;;;16.96;56.94
62694;BME280;48759;52.544;13.418;2023-03-26T11:06:27;99647.00;;;17.37;55.77
62694;BME280;48759;52.544;13.418;2023-03-26T11:09:19;99649.47;;;16.98;56.78
62694;BME280;48759;52.544;13.418;2023-03-26T11:11:55;99647.53;;;17.19;56.16
62694;BME280;48759;52.544;13.418;2023-03-26T11:14:30;99647.75;;;18.88;51.92
62694;BME280;48759;52.544;13.418;2023-03-26T11:17:03;99649.78;;;19.84;49.73
62694;BME280;48759;52.544;13.418;2023-03-26T11:19:40;99649.03;;;19.45;49.57
62694;BME280;48759;52.544;13.418;2023-03-26T11:22:16;99645.88;;;19.18;49.84
62694;BME280;48759;52.544;13.418;2023-03-26T11:25:07;99640.38;;;19.07;49.57
62694;BME280;48759;52.544;13.418;2023-03-26T11:27:52;99633.09;;;19.51;47.80
62694;BME280;48759;52.544;13.418;2023-03-26T11:30:31;99636.47;;;18.59;50.66
62694;BME280;48759;52.544;13.418;2023-03-26T11:33:06;99634.94;;;21.03;46.07
62694;BME280;48759;52.544;13.418;2023-03-26T11:35:41;99635.03;;;20.98;45.93
62694;BME280;48759;52.544;13.418;2023-03-26T11:38:24;99634.63;;;19.96;45.75
62694;BME280;48759;52.544;13.418;2023-03-26T11:40:56;99625.97;;;20.21;46.06
62694;BME280;48759;52.544;13.418;2023-03-26T11:43:28;99627.53;;;19.51;47.15
62694;BME280;48759;52.544;13.418;2023-03-26T11:45:59;99622.28;;;19.73;46.92
62694;BME280;48759;52.544;13.418;2023-03-26T11:48:32;99623.38;;;20.06;45.26
62694;BME280;48759;52.544;13.418;2023-03-26T11:51:06;99626.09;;;21.33;44.25
62694;BME280;48759;52.544;13.418;2023-03-26T11:53:35;99634.78;;;18.63;47.26
62694;BME280;48759;52.544;13.418;2023-03-26T11:56:12;99623.53;;;19.85;45.87
62694;BME280;48759;52.544;13.418;2023-03-26T11:58:45;99619.34;;;19.59;46.30
62694;BME280;48759;52.544;13.418;2023-03-26T12:01:19;99614.66;;;20.31;45.20
62694;BME280;48759;52.544;13.418;2023-03-26T12:04:02;99610.63;;;20.42;44.50
62694;BME280;48759;52.544;13.418;2023-03-26T12:06:36;99608.78;;;20.09;44.83
62694;BME280;48759;52.544;13.418;2023-03-26T12:09:17;99608.56;;;20.72;43.83
62694;BME280;48759;52.544;13.418;2023-03-26T12:11:46;99615.91;;;19.67;44.79
62694;BME280;48759;52.544;13.418;2023-03-26T12:14:19;99598.56;;;19.41;45.57
62694;BME280;48759;52.544;13.418;2023-03-26T12:17:00;99595.03;;;19.31;45.81
62694;BME280;48759;52.544;13.418;2023-03-26T12:19:34;99595.78;;;18.63;47.36
62694;BME280;48759;52.544;13.418;2023-03-26T12:22:03;99584.75;;;20.32;44.76
62694;BME280;48759;52.544;13.418;2023-03-26T12:24:32;99592.25;;;20.79;42.93
62694;BME280;48759;52.544;13.418;2023-03-26T12:27:20;99576.34;;;21.30;42.65
62694;BME280;48759;52.544;13.418;2023-03-26T12:29:50;99576.88;;;21.14;42.49
62694;BME280;48759;52.544;13.418;2023-03-26T12:32:20;99572.91;;;21.01;42.16
62694;BME280;48759;52.544;13.418;2023-03-26T12:34:48;99565.78;;;20.52;42.42
62694;BME280;48759;52.544;13.418;2023-03-26T12:37:35;99564.56;;;19.92;42.69
62694;BME280;48759;52.544;13.418;2023-03-26T12:40:08;99570.84;;;20.27;42.82
62694;BME280;48759;52.544;13.418;2023-03-26T12:42:57;99564.63;;;19.29;43.43
62694;BME280;48759;52.544;13.418;2023-03-26T12:45:29;99567.31;;;20.40;42.35
62694;BME280;48759;52.544;13.418;2023-03-26T12:48:01;99559.03;;;20.11;42.08
62694;BME280;48759;52.544;13.418;2023-03-26T12:50:43;99563.47;;;20.36;41.46
62694;BME280;48759;52.544;13.418;2023-03-26T12:56:13;99562.03;;;20.62;40.50
62694;BME280;48759;52.544;13.418;2023-03-26T12:59:00;99561.13;;;20.67;40.07
62694;BME280;48759;52.544;13.418;2023-03-26T13:01:54;99564.94;;;20.52;39.38
62694;BME280;48759;52.544;13.418;2023-03-26T13:04:45;99564.97;;;20.28;40.29
62694;BME280;48759;52.544;13.418;2023-03-26T13:07:26;99570.53;;;19.28;41.09
62694;BME280;48759;52.544;13.418;2023-03-26T13:10:38;99564.00;;;19.66;40.61
62694;BME280;48759;52.544;13.418;2023-03-26T13:16:23;99554.06;;;18.48;42.28
62694;BME280;48759;52.544;13.418;2023-03-26T13:19:00;99551.22;;;18.97;41.83
62694;BME280;48759;52.544;13.418;2023-03-26T13:21:33;99555.06;;;19.93;40.17
62694;BME280;48759;52.544;13.418;2023-03-26T13:24:11;99544.16;;;19.44;40.53
62694;BME280;48759;52.544;13.418;2023-03-26T13:26:52;99545.41;;;19.28;41.32
62694;BME280;48759;52.544;13.418;2023-03-26T13:29:27;99543.28;;;18.76;41.19
62694;BME280;48759;52.544;13.418;2023-03-26T13:32:00;99557.22;;;18.21;41.54
62694;BME280;48759;52.544;13.418;2023-03-26T13:34:35;99553.19;;;18.48;41.10
62694;BME280;48759;52.544;13.418;2023-03-26T13:37:13;99544.56;;;18.44;41.58
62694;BME280;48759;52.544;13.418;2023-03-26T13:39:52;99541.38;;;18.12;41.53
62694;BME280;48759;52.544;13.418;2023-03-26T13:42:35;99553.53;;;17.62;41.76
62694;BME280;48759;52.544;13.418;2023-03-26T13:45:12;99547.94;;;17.56;42.06
62694;BME280;48759;52.544;13.418;2023-03-26T13:47:48;99544.38;;;18.30;41.70
62694;BME280;48759;52.544;13.418;2023-03-26T13:50:21;99543.00;;;17.13;42.43
62694;BME280;48759;52.544;13.418;2023-03-26T13:52:54;99557.41;;;17.76;41.90
62694;BME280;48759;52.544;13.418;2023-03-26T13:55:26;99551.59;;;16.91;43.08
62694;BME280;48759;52.544;13.418;2023-03-26T13:58:00;99548.13;;;18.01;41.81